sensor_id;sensor_type;location;lat;lon;timestamp;P1;durP1;ratioP1;P2;durP2;ratioP2
32250;SDS011;41295;48.518;9.206;2022-09-12T00:00:40;7.30;;;5.70;;
32250;SDS011;41295;48.518;9.206;2022-09-12T00:02:43;9.88;;;6.20;;
32250;SDS011;41295;48.518;9.206;2022-09-12T00:04:47;7.75;;;5.57;;
32250;SDS011;41295;48.518;9.206;2022-09-12T00:06:49;8.77;;;5.95;;
32250;SDS011;41295;48.518;9.206;2022-09-12T00:08:52;10.75;;;6.00;;
32250;SDS011;41295;48.518;9.206;2022-09-12T00:10:57;12.20;;;6.07;;
32250;SDS011;41295;48.518;9.206;2022-09-12T00:12:59;7.03;;;5.25;;
32250;SDS011;41295;48.518;9.206;2022-09-12T00:15:02;13.52;;;6.15;;
32250;SDS011;41295;48.518;9.206;2022-09-12T00:17:05;9.65;;;5.97;;
32250;SDS011;41295;48.518;9.206;2022-09-12T00:19:08;8.38;;;5.93;;
32250;SDS011;41295;48.518;9.206;2022-09-12T00:21:12;9.32;;;6.65;;
32250;SDS011;41295;48.518;9.206;2022-09-12T00:23:15;11.18;;;5.95;;
32250;SDS011;41295;48.518;9.206;2022-09-12T00:25:18;9.70;;;6.43;;
32250;SDS011;41295;48.518;9.206;2022-09-12T00:27:20;10.93;;;6.25;;
32250;SDS011;41295;48.518;9.206;2022-09-12T00:29:23;7.72;;;5.50;;
32250;SDS011;41295;48.518;9.206;2022-09-12T00:31:26;11.02;;;6.05;;
32250;SDS011;41295;48.518;9.206;2022-09-12T00:33:29;8.40;;;6.22;;
32250;SDS011;41295;48.518;9.206;2022-09-12T00:35:32;10.68;;;6.47;;
32250;SDS011;41295;48.518;9.206;2022-09-12T00:37:36;12.65;;;6.75;;
32250;SDS011;41295;48.518;9.206;2022-09-12T00:39:38;12.30;;;6.70;;
32250;SDS011;41295;48.518;9.206;2022-09-12T00:41:42;8.73;;;6.32;;
32250;SDS011;41295;48.518;9.206;2022-09-12T00:43:45;8.63;;;6.38;;
32250;SDS011;41295;48.518;9.206;2022-09-12T00:45:49;9.25;;;6.75;;
32250;SDS011;41295;48.518;9.206;2022-09-12T00:47:52;9.05;;;5.72;;
32250;SDS011;41295;48.518;9.206;2022-09-12T00:49:57;11.55;;;6.25;;
32250;SDS011;41295;48.518;9.206;2022-09-12T00:52:06;9.20;;;7.47;;
32250;SDS011;41295;48.518;9.206;2022-09-12T00:54:13;12.10;;;7.30;;
32250;SDS011;41295;48.518;9.206;2022-09-12T00:56:18;15.68;;;6.97;;
32250;SDS011;41295;48.518;9.206;2022-09-12T00:58:23;11.15;;;6.70;;
32250;SDS011;41295;48.518;9.206;2022-09-12T01:00:29;10.80;;;7.30;;
32250;SDS011;41295;48.518;9.206;2022-09-12T01:02:31;12.18;;;7.00;;
32250;SDS011;41295;48.518;9.206;2022-09-12T01:04:34;9.88;;;7.03;;
32250;SDS011;41295;48.518;9.206;2022-09-12T01:06:40;8.73;;;6.38;;
32250;SDS011;41295;48.518;9.206;2022-09-12T01:08:45;10.82;;;6.90;;
32250;SDS011;41295;48.518;9.206;2022-09-12T01:10:50;12.82;;;6.10;;
32250;SDS011;41295;48.518;9.206;2022-09-12T01:12:53;8.70;;;6.82;;
32250;SDS011;41295;48.518;9.206;2022-09-12T01:14:56;13.10;;;6.22;;
32250;SDS011;41295;48.518;9.206;2022-09-12T01:16:59;11.52;;;6.88;;
32250;SDS011;41295;48.518;9.206;2022-09-12T01:19:06;8.77;;;6.45;;
32250;SDS011;41295;48.518;9.206;2022-09-12T01:21:24;11.82;;;8.25;;
32250;SDS011;41295;48.518;9.206;2022-09-12T01:29:08;16.58;;;7.20;;
32250;SDS011;41295;48.518;9.206;2022-09-12T01:31:25;10.50;;;7.90;;
32250;SDS011;41295;48.518;9.206;2022-09-12T01:33:38;11.48;;;7.90;;
32250;SDS011;41295;48.518;9.206;2022-09-12T01:35:50;10.27;;;6.93;;
32250;SDS011;41295;48.518;9.206;2022-09-12T01:38:06;9.75;;;6.53;;
32250;SDS011;41295;48.518;9.206;2022-09-12T01:40:14;12.27;;;6.72;;
32250;SDS011;41295;48.518;9.206;2022-09-12T01:42:25;12.25;;;7.07;;
32250;SDS011;41295;48.518;9.206;2022-09-12T01:44:35;11.70;;;7.55;;
32250;SDS011;41295;48.518;9.206;2022-09-12T01:46:50;14.15;;;7.53;;
32250;SDS011;41295;48.518;9.206;2022-09-12T01:49:00;10.75;;;7.18;;
32250;SDS011;41295;48.518;9.206;2022-09-12T01:51:09;12.00;;;7.18;;
32250;SDS011;41295;48.518;9.206;2022-09-12T01:53:19;11.07;;;7.18;;
32250;SDS011;41295;48.518;9.206;2022-09-12T01:55:28;10.18;;;7.38;;
32250;SDS011;41295;48.518;9.206;2022-09-12T01:57:34;10.32;;;7.45;;
32250;SDS011;41295;48.518;9.206;2022-09-12T01:59:42;13.05;;;8.20;;
32250;SDS011;41295;48.518;9.206;2022-09-12T02:01:51;11.02;;;7.68;;
32250;SDS011;41295;48.518;9.206;2022-09-12T02:04:02;10.55;;;6.55;;
32250;SDS011;41295;48.518;9.206;2022-09-12T02:06:11;19.40;;;7.28;;
32250;SDS011;41295;48.518;9.206;2022-09-12T02:08:21;15.82;;;8.20;;
32250;SDS011;41295;48.518;9.206;2022-09-12T02:10:28;10.10;;;7.57;;
32250;SDS011;41295;48.518;9.206;2022-09-12T02:12:36;11.50;;;7.28;;
32250;SDS011;41295;48.518;9.206;2022-09-12T02:14:44;11.00;;;7.75;;
32250;SDS011;41295;48.518;9.206;2022-09-12T02:16:51;10.65;;;7.47;;
32250;SDS011;41295;48.518;9.206;2022-09-12T02:18:58;11.00;;;7.30;;
32250;SDS011;41295;48.518;9.206;2022-09-12T02:21:06;9.15;;;7.07;;
32250;SDS011;41295;48.518;9.206;2022-09-12T02:23:10;11.00;;;6.75;;
32250;SDS011;41295;48.518;9.206;2022-09-12T02:25:16;11.52;;;7.57;;
32250;SDS011;41295;48.518;9.206;2022-09-12T02:27:21;10.88;;;6.93;;
32250;SDS011;41295;48.518;9.206;2022-09-12T02:29:27;8.88;;;7.03;;
32250;SDS011;41295;48.518;9.206;2022-09-12T02:31:31;14.07;;;6.85;;
32250;SDS011;41295;48.518;9.206;2022-09-12T02:33:43;7.85;;;6.13;;
32250;SDS011;41295;48.518;9.206;2022-09-12T02:35:51;9.70;;;6.85;;
32250;SDS011;41295;48.518;9.206;2022-09-12T02:38:00;16.02;;;7.97;;
32250;SDS011;41295;48.518;9.206;2022-09-12T02:40:05;9.05;;;6.38;;
32250;SDS011;41295;48.518;9.206;2022-09-12T02:42:09;8.52;;;6.30;;
32250;SDS011;41295;48.518;9.206;2022-09-12T02:44:12;13.85;;;7.07;;
32250;SDS011;41295;48.518;9.206;2022-09-12T02:46:16;9.23;;;6.82;;
32250;SDS011;41295;48.518;9.206;2022-09-12T02:48:22;10.93;;;6.78;;
32250;SDS011;41295;48.518;9.206;2022-09-12T02:50:29;12.95;;;8.68;;
32250;SDS011;41295;48.518;9.206;2022-09-12T02:52:32;11.95;;;8.50;;
32250;SDS011;41295;48.518;9.206;2022-09-12T02:54:36;13.55;;;8.20;;
32250;SDS011;41295;48.518;9.206;2022-09-12T02:56:39;11.90;;;8.32;;
32250;SDS011;41295;48.518;9.206;2022-09-12T02:58:43;10.73;;;7.65;;
32250;SDS011;41295;48.518;9.206;2022-09-12T03:00:47;13.90;;;8.77;;
32250;SDS011;41295;48.518;9.206;2022-09-12T03:03:03;12.83;;;8.27;;
32250;SDS011;41295;48.518;9.206;2022-09-12T03:05:23;13.40;;;8.57;;
32250;SDS011;41295;48.518;9.206;2022-09-12T03:07:37;9.82;;;7.68;;
32250;SDS011;41295;48.518;9.206;2022-09-12T03:09:56;13.45;;;8.48;;
32250;SDS011;41295;48.518;9.206;2022-09-12T03:12:09;16.42;;;8.45;;
32250;SDS011;41295;48.518;9.206;2022-09-12T03:14:34;13.27;;;8.68;;
32250;SDS011;41295;48.518;9.206;2022-09-12T03:16:45;13.55;;;8.63;;
32250;SDS011;41295;48.518;9.206;2022-09-12T03:18:59;12.00;;;7.70;;
32250;SDS011;41295;48.518;9.206;2022-09-12T03:21:08;9.00;;;7.10;;
32250;SDS011;41295;48.518;9.206;2022-09-12T03:23:22;9.80;;;7.88;;
32250;SDS011;41295;48.518;9.206;2022-09-12T03:25:31;12.43;;;7.78;;
32250;SDS011;41295;48.518;9.206;2022-09-12T03:27:37;10.95;;;7.93;;
32250;SDS011;41295;48.518;9.206;2022-09-12T03:29:44;9.95;;;7.70;;
32250;SDS011;41295;48.518;9.206;2022-09-12T03:31:49;14.55;;;7.95;;
32250;SDS011;41295;48.518;9.206;2022-09-12T03:33:55;10.68;;;7.32;;
32250;SDS011;41295;48.518;9.206;2022-09-12T03:35:58;12.30;;;7.80;;
32250;SDS011;41295;48.518;9.206;2022-09-12T03:38:03;11.10;;;8.00;;
32250;SDS011;41295;48.518;9.206;2022-09-12T03:40:10;14.05;;;7.53;;
32250;SDS011;41295;48.518;9.206;2022-09-12T03:42:13;10.00;;;6.68;;
32250;SDS011;41295;48.518;9.206;2022-09-12T03:44:15;8.30;;;6.47;;
32250;SDS011;41295;48.518;9.206;2022-09-12T03:46:18;10.02;;;6.82;;
32250;SDS011;41295;48.518;9.206;2022-09-12T03:48:21;8.77;;;6.45;;
32250;SDS011;41295;48.518;9.206;2022-09-12T03:50:23;8.70;;;7.00;;
32250;SDS011;41295;48.518;9.206;2022-09-12T03:52:26;10.73;;;6.68;;
32250;SDS011;41295;48.518;9.206;2022-09-12T03:54:29;10.30;;;6.40;;
32250;SDS011;41295;48.518;9.206;2022-09-12T03:56:33;8.38;;;6.47;;
32250;SDS011;41295;48.518;9.206;2022-09-12T03:58:36;7.85;;;6.78;;
32250;SDS011;41295;48.518;9.206;2022-09-12T04:00:39;10.23;;;7.22;;
32250;SDS011;41295;48.518;9.206;2022-09-12T04:02:43;11.02;;;7.10;;
32250;SDS011;41295;48.518;9.206;2022-09-12T04:04:45;9.20;;;6.63;;
32250;SDS011;41295;48.518;9.206;2022-09-12T04:06:49;16.98;;;6.63;;
32250;SDS011;41295;48.518;9.206;2022-09-12T04:08:51;9.93;;;6.97;;
32250;SDS011;41295;48.518;9.206;2022-09-12T04:11:00;25.20;;;8.10;;
32250;SDS011;41295;48.518;9.206;2022-09-12T04:13:05;17.13;;;8.18;;
32250;SDS011;41295;48.518;9.206;2022-09-12T04:15:08;12.13;;;8.18;;
32250;SDS011;41295;48.518;9.206;2022-09-12T04:17:11;19.75;;;9.68;;
32250;SDS011;41295;48.518;9.206;2022-09-12T04:19:14;13.43;;;8.77;;
32250;SDS011;41295;48.518;9.206;2022-09-12T04:21:17;11.00;;;8.18;;
32250;SDS011;41295;48.518;9.206;2022-09-12T04:23:22;16.00;;;9.30;;
32250;SDS011;41295;48.518;9.206;2022-09-12T04:25:24;12.02;;;8.60;;
32250;SDS011;41295;48.518;9.206;2022-09-12T04:27:28;14.07;;;8.68;;
32250;SDS011;41295;48.518;9.206;2022-09-12T04:29:32;9.75;;;8.10;;
32250;SDS011;41295;48.518;9.206;2022-09-12T04:31:35;12.40;;;8.10;;
32250;SDS011;41295;48.518;9.206;2022-09-12T04:33:38;9.68;;;7.75;;
32250;SDS011;41295;48.518;9.206;2022-09-12T04:35:41;11.65;;;8.15;;
32250;SDS011;41295;48.518;9.206;2022-09-12T04:37:45;11.82;;;8.80;;
32250;SDS011;41295;48.518;9.206;2022-09-12T04:39:48;11.18;;;8.73;;
32250;SDS011;41295;48.518;9.206;2022-09-12T04:41:50;16.75;;;8.65;;
32250;SDS011;41295;48.518;9.206;2022-09-12T04:43:53;32.78;;;8.63;;
32250;SDS011;41295;48.518;9.206;2022-09-12T04:46:04;29.13;;;8.68;;
32250;SDS011;41295;48.518;9.206;2022-09-12T04:48:07;11.32;;;8.30;;
32250;SDS011;41295;48.518;9.206;2022-09-12T04:50:10;12.20;;;7.95;;
32250;SDS011;41295;48.518;9.206;2022-09-12T04:52:12;8.05;;;6.85;;
32250;SDS011;41295;48.518;9.206;2022-09-12T04:54:15;11.90;;;7.68;;
32250;SDS011;41295;48.518;9.206;2022-09-12T04:56:20;8.05;;;6.97;;
32250;SDS011;41295;48.518;9.206;2022-09-12T04:58:23;12.50;;;7.28;;
32250;SDS011;41295;48.518;9.206;2022-09-12T05:00:26;9.98;;;7.30;;
32250;SDS011;41295;48.518;9.206;2022-09-12T05:02:31;7.75;;;6.40;;
32250;SDS011;41295;48.518;9.206;2022-09-12T05:04:34;8.80;;;6.90;;
32250;SDS011;41295;48.518;9.206;2022-09-12T05:06:37;7.70;;;6.40;;
32250;SDS011;41295;48.518;9.206;2022-09-12T05:08:40;8.52;;;6.70;;
32250;SDS011;41295;48.518;9.206;2022-09-12T05:10:43;9.05;;;7.00;;
32250;SDS011;41295;48.518;9.206;2022-09-12T05:12:45;11.00;;;7.22;;
32250;SDS011;41295;48.518;9.206;2022-09-12T05:14:48;15.82;;;8.00;;
32250;SDS011;41295;48.518;9.206;2022-09-12T05:16:51;11.85;;;7.60;;
32250;SDS011;41295;48.518;9.206;2022-09-12T05:18:55;13.38;;;8.68;;
32250;SDS011;41295;48.518;9.206;2022-09-12T05:20:58;27.75;;;9.13;;
32250;SDS011;41295;48.518;9.206;2022-09-12T05:23:02;29.77;;;8.82;;
32250;SDS011;41295;48.518;9.206;2022-09-12T05:25:05;14.75;;;8.45;;
32250;SDS011;41295;48.518;9.206;2022-09-12T05:27:08;19.17;;;9.30;;
32250;SDS011;41295;48.518;9.206;2022-09-12T05:29:11;16.30;;;9.80;;
32250;SDS011;41295;48.518;9.206;2022-09-12T05:31:15;19.17;;;9.88;;
32250;SDS011;41295;48.518;9.206;2022-09-12T05:33:19;16.10;;;8.90;;
32250;SDS011;41295;48.518;9.206;2022-09-12T05:35:26;15.55;;;9.38;;
32250;SDS011;41295;48.518;9.206;2022-09-12T05:37:29;13.23;;;9.35;;
32250;SDS011;41295;48.518;9.206;2022-09-12T05:39:32;17.88;;;9.32;;
32250;SDS011;41295;48.518;9.206;2022-09-12T05:41:34;15.63;;;8.32;;
32250;SDS011;41295;48.518;9.206;2022-09-12T05:43:38;16.08;;;9.07;;
32250;SDS011;41295;48.518;9.206;2022-09-12T05:45:41;13.15;;;8.50;;
32250;SDS011;41295;48.518;9.206;2022-09-12T05:47:45;13.57;;;9.02;;
32250;SDS011;41295;48.518;9.206;2022-09-12T05:49:48;13.30;;;9.30;;
32250;SDS011;41295;48.518;9.206;2022-09-12T05:51:54;14.38;;;9.43;;
32250;SDS011;41295;48.518;9.206;2022-09-12T05:53:57;17.42;;;9.10;;
32250;SDS011;41295;48.518;9.206;2022-09-12T05:56:04;14.35;;;9.48;;
32250;SDS011;41295;48.518;9.206;2022-09-12T05:58:08;15.45;;;9.13;;
32250;SDS011;41295;48.518;9.206;2022-09-12T06:00:11;14.77;;;8.93;;
32250;SDS011;41295;48.518;9.206;2022-09-12T06:02:17;15.73;;;9.15;;
32250;SDS011;41295;48.518;9.206;2022-09-12T06:04:20;18.25;;;7.35;;
32250;SDS011;41295;48.518;9.206;2022-09-12T06:06:24;9.63;;;7.47;;
32250;SDS011;41295;48.518;9.206;2022-09-12T06:08:29;10.80;;;7.70;;
32250;SDS011;41295;48.518;9.206;2022-09-12T06:10:32;11.93;;;7.53;;
32250;SDS011;41295;48.518;9.206;2022-09-12T06:12:35;11.50;;;8.10;;
32250;SDS011;41295;48.518;9.206;2022-09-12T06:14:38;13.18;;;8.00;;
32250;SDS011;41295;48.518;9.206;2022-09-12T06:16:40;12.93;;;7.82;;
32250;SDS011;41295;48.518;9.206;2022-09-12T06:18:45;12.52;;;7.45;;
32250;SDS011;41295;48.518;9.206;2022-09-12T06:20:49;9.35;;;7.45;;
32250;SDS011;41295;48.518;9.206;2022-09-12T06:22:51;14.63;;;8.00;;
32250;SDS011;41295;48.518;9.206;2022-09-12T06:24:55;10.95;;;8.60;;
32250;SDS011;41295;48.518;9.206;2022-09-12T06:26:58;10.18;;;7.82;;
32250;SDS011;41295;48.518;9.206;2022-09-12T06:29:02;11.48;;;8.30;;
32250;SDS011;41295;48.518;9.206;2022-09-12T06:31:05;11.85;;;8.57;;
32250;SDS011;41295;48.518;9.206;2022-09-12T06:33:10;14.05;;;9.43;;
32250;SDS011;41295;48.518;9.206;2022-09-12T06:35:13;12.38;;;8.90;;
32250;SDS011;41295;48.518;9.206;2022-09-12T06:37:16;13.10;;;9.18;;
32250;SDS011;41295;48.518;9.206;2022-09-12T06:39:19;17.38;;;10.05;;
32250;SDS011;41295;48.518;9.206;2022-09-12T06:41:24;26.75;;;11.93;;
32250;SDS011;41295;48.518;9.206;2022-09-12T06:43:28;22.23;;;12.52;;
32250;SDS011;41295;48.518;9.206;2022-09-12T06:45:30;27.17;;;13.05;;
32250;SDS011;41295;48.518;9.206;2022-09-12T06:47:33;22.83;;;13.38;;
32250;SDS011;41295;48.518;9.206;2022-09-12T06:49:35;19.90;;;12.23;;
32250;SDS011;41295;48.518;9.206;2022-09-12T06:51:38;17.45;;;11.65;;
32250;SDS011;41295;48.518;9.206;2022-09-12T06:53:43;19.90;;;12.23;;
32250;SDS011;41295;48.518;9.206;2022-09-12T06:55:48;27.33;;;11.40;;
32250;SDS011;41295;48.518;9.206;2022-09-12T06:57:57;17.95;;;11.02;;
32250;SDS011;41295;48.518;9.206;2022-09-12T07:00:00;18.05;;;11.48;;
32250;SDS011;41295;48.518;9.206;2022-09-12T07:02:04;20.88;;;11.82;;
32250;SDS011;41295;48.518;9.206;2022-09-12T07:04:07;19.95;;;12.18;;
32250;SDS011;41295;48.518;9.206;2022-09-12T07:06:11;16.75;;;10.13;;
32250;SDS011;41295;48.518;9.206;2022-09-12T07:08:14;17.42;;;11.00;;
32250;SDS011;41295;48.518;9.206;2022-09-12T07:10:17;37.13;;;11.13;;
32250;SDS011;41295;48.518;9.206;2022-09-12T07:12:22;14.00;;;9.80;;
32250;SDS011;41295;48.518;9.206;2022-09-12T07:14:26;106.13;;;11.60;;
32250;SDS011;41295;48.518;9.206;2022-09-12T07:16:29;42.60;;;10.38;;
32250;SDS011;41295;48.518;9.206;2022-09-12T07:18:32;12.43;;;9.57;;
32250;SDS011;41295;48.518;9.206;2022-09-12T07:20:35;18.75;;;11.25;;
32250;SDS011;41295;48.518;9.206;2022-09-12T07:22:39;21.13;;;10.02;;
32250;SDS011;41295;48.518;9.206;2022-09-12T07:24:42;20.15;;;9.35;;
32250;SDS011;41295;48.518;9.206;2022-09-12T07:26:45;21.02;;;10.45;;
32250;SDS011;41295;48.518;9.206;2022-09-12T07:28:49;17.42;;;9.65;;
32250;SDS011;41295;48.518;9.206;2022-09-12T07:30:54;12.73;;;9.82;;
32250;SDS011;41295;48.518;9.206;2022-09-12T07:32:56;15.68;;;9.40;;
32250;SDS011;41295;48.518;9.206;2022-09-12T07:34:59;25.30;;;10.02;;
32250;SDS011;41295;48.518;9.206;2022-09-12T07:37:02;14.55;;;10.30;;
32250;SDS011;41295;48.518;9.206;2022-09-12T07:39:07;16.02;;;10.15;;
32250;SDS011;41295;48.518;9.206;2022-09-12T07:41:10;13.30;;;9.98;;
32250;SDS011;41295;48.518;9.206;2022-09-12T07:43:13;17.67;;;10.23;;
32250;SDS011;41295;48.518;9.206;2022-09-12T07:45:16;13.18;;;10.05;;
32250;SDS011;41295;48.518;9.206;2022-09-12T07:47:20;14.18;;;11.05;;
32250;SDS011;41295;48.518;9.206;2022-09-12T07:49:22;15.30;;;10.52;;
32250;SDS011;41295;48.518;9.206;2022-09-12T07:51:26;14.70;;;10.23;;
32250;SDS011;41295;48.518;9.206;2022-09-12T07:53:30;14.70;;;10.40;;
32250;SDS011;41295;48.518;9.206;2022-09-12T07:55:35;13.18;;;10.20;;
32250;SDS011;41295;48.518;9.206;2022-09-12T07:57:38;24.30;;;12.00;;
32250;SDS011;41295;48.518;9.206;2022-09-12T07:59:40;15.13;;;10.95;;
32250;SDS011;41295;48.518;9.206;2022-09-12T08:01:56;16.52;;;11.68;;
32250;SDS011;41295;48.518;9.206;2022-09-12T08:04:00;12.68;;;10.07;;
32250;SDS011;41295;48.518;9.206;2022-09-12T08:06:05;19.48;;;11.45;;
32250;SDS011;41295;48.518;9.206;2022-09-12T08:08:09;19.20;;;11.98;;
32250;SDS011;41295;48.518;9.206;2022-09-12T08:10:12;16.58;;;11.27;;
32250;SDS011;41295;48.518;9.206;2022-09-12T08:12:16;15.52;;;11.55;;
32250;SDS011;41295;48.518;9.206;2022-09-12T08:14:20;14.73;;;10.85;;
32250;SDS011;41295;48.518;9.206;2022-09-12T08:16:27;15.00;;;11.07;;
32250;SDS011;41295;48.518;9.206;2022-09-12T08:18:31;16.00;;;12.27;;
32250;SDS011;41295;48.518;9.206;2022-09-12T08:20:35;15.20;;;10.95;;
32250;SDS011;41295;48.518;9.206;2022-09-12T08:22:38;14.98;;;11.45;;
32250;SDS011;41295;48.518;9.206;2022-09-12T08:24:40;16.23;;;11.20;;
32250;SDS011;41295;48.518;9.206;2022-09-12T08:26:43;19.17;;;11.15;;
32250;SDS011;41295;48.518;9.206;2022-09-12T08:28:46;15.38;;;10.80;;
32250;SDS011;41295;48.518;9.206;2022-09-12T08:30:49;14.85;;;10.68;;
32250;SDS011;41295;48.518;9.206;2022-09-12T08:32:52;13.48;;;10.88;;
32250;SDS011;41295;48.518;9.206;2022-09-12T08:34:54;15.60;;;11.07;;
32250;SDS011;41295;48.518;9.206;2022-09-12T08:36:58;13.48;;;10.52;;
32250;SDS011;41295;48.518;9.206;2022-09-12T08:39:02;15.43;;;11.35;;
32250;SDS011;41295;48.518;9.206;2022-09-12T08:41:08;14.80;;;10.82;;
32250;SDS011;41295;48.518;9.206;2022-09-12T08:43:20;13.57;;;9.73;;
32250;SDS011;41295;48.518;9.206;2022-09-12T08:45:35;17.77;;;9.68;;
32250;SDS011;41295;48.518;9.206;2022-09-12T08:47:44;12.95;;;9.65;;
32250;SDS011;41295;48.518;9.206;2022-09-12T08:49:50;12.05;;;9.73;;
32250;SDS011;41295;48.518;9.206;2022-09-12T08:52:02;13.48;;;9.63;;
32250;SDS011;41295;48.518;9.206;2022-09-12T08:54:12;14.32;;;10.98;;
32250;SDS011;41295;48.518;9.206;2022-09-12T08:56:21;13.38;;;10.02;;
32250;SDS011;41295;48.518;9.206;2022-09-12T08:58:28;14.32;;;9.95;;
32250;SDS011;41295;48.518;9.206;2022-09-12T09:00:37;13.40;;;10.45;;
32250;SDS011;41295;48.518;9.206;2022-09-12T09:02:53;12.13;;;9.10;;
32250;SDS011;41295;48.518;9.206;2022-09-12T09:05:14;13.18;;;9.32;;
32250;SDS011;41295;48.518;9.206;2022-09-12T09:07:30;13.68;;;7.35;;
32250;SDS011;41295;48.518;9.206;2022-09-12T09:09:50;11.82;;;8.35;;
32250;SDS011;41295;48.518;9.206;2022-09-12T09:12:10;10.68;;;7.57;;
32250;SDS011;41295;48.518;9.206;2022-09-12T09:14:23;9.70;;;7.40;;
32250;SDS011;41295;48.518;9.206;2022-09-12T09:16:48;9.63;;;7.63;;
32250;SDS011;41295;48.518;9.206;2022-09-12T09:18:53;10.73;;;7.72;;
32250;SDS011;41295;48.518;9.206;2022-09-12T09:21:00;10.77;;;6.95;;
32250;SDS011;41295;48.518;9.206;2022-09-12T09:23:10;8.70;;;7.13;;
32250;SDS011;41295;48.518;9.206;2022-09-12T09:25:18;9.55;;;7.28;;
32250;SDS011;41295;48.518;9.206;2022-09-12T09:27:25;10.57;;;7.55;;
32250;SDS011;41295;48.518;9.206;2022-09-12T09:29:42;8.82;;;7.20;;
32250;SDS011;41295;48.518;9.206;2022-09-12T09:31:51;8.20;;;7.28;;
32250;SDS011;41295;48.518;9.206;2022-09-12T09:33:56;11.30;;;6.80;;
32250;SDS011;41295;48.518;9.206;2022-09-12T09:36:00;13.70;;;7.18;;
32250;SDS011;41295;48.518;9.206;2022-09-12T09:38:17;9.00;;;6.80;;
32250;SDS011;41295;48.518;9.206;2022-09-12T09:40:25;8.80;;;6.72;;
32250;SDS011;41295;48.518;9.206;2022-09-12T09:42:37;9.85;;;6.82;;
32250;SDS011;41295;48.518;9.206;2022-09-12T09:44:45;9.15;;;6.78;;
32250;SDS011;41295;48.518;9.206;2022-09-12T09:46:50;7.80;;;6.47;;
32250;SDS011;41295;48.518;9.206;2022-09-12T09:48:56;11.45;;;6.15;;
32250;SDS011;41295;48.518;9.206;2022-09-12T09:51:03;10.68;;;7.70;;
32250;SDS011;41295;48.518;9.206;2022-09-12T09:53:10;9.43;;;6.30;;
32250;SDS011;41295;48.518;9.206;2022-09-12T09:55:25;7.70;;;5.43;;
32250;SDS011;41295;48.518;9.206;2022-09-12T09:57:39;10.20;;;4.68;;
32250;SDS011;41295;48.518;9.206;2022-09-12T09:59:44;7.32;;;5.53;;
32250;SDS011;41295;48.518;9.206;2022-09-12T10:01:48;6.75;;;5.50;;
32250;SDS011;41295;48.518;9.206;2022-09-12T10:03:54;7.03;;;5.57;;
32250;SDS011;41295;48.518;9.206;2022-09-12T10:05:58;6.05;;;4.70;;
32250;SDS011;41295;48.518;9.206;2022-09-12T10:08:02;7.82;;;5.05;;
32250;SDS011;41295;48.518;9.206;2022-09-12T10:10:13;8.13;;;4.68;;
32250;SDS011;41295;48.518;9.206;2022-09-12T10:12:25;5.55;;;4.50;;
32250;SDS011;41295;48.518;9.206;2022-09-12T10:14:33;7.10;;;5.70;;
32250;SDS011;41295;48.518;9.206;2022-09-12T10:16:47;6.88;;;4.65;;
32250;SDS011;41295;48.518;9.206;2022-09-12T10:18:53;8.02;;;4.82;;
32250;SDS011;41295;48.518;9.206;2022-09-12T10:20:57;5.25;;;4.15;;
32250;SDS011;41295;48.518;9.206;2022-09-12T10:23:03;6.80;;;4.30;;
32250;SDS011;41295;48.518;9.206;2022-09-12T10:25:30;8.02;;;5.10;;
32250;SDS011;41295;48.518;9.206;2022-09-12T10:27:34;5.07;;;4.55;;
32250;SDS011;41295;48.518;9.206;2022-09-12T10:29:38;8.25;;;5.50;;
32250;SDS011;41295;48.518;9.206;2022-09-12T10:31:47;6.40;;;5.13;;
32250;SDS011;41295;48.518;9.206;2022-09-12T10:33:52;11.55;;;6.10;;
32250;SDS011;41295;48.518;9.206;2022-09-12T10:35:55;8.95;;;6.10;;
32250;SDS011;41295;48.518;9.206;2022-09-12T10:38:05;7.60;;;5.75;;
32250;SDS011;41295;48.518;9.206;2022-09-12T10:40:19;8.40;;;5.50;;
32250;SDS011;41295;48.518;9.206;2022-09-12T10:42:43;7.40;;;4.85;;
32250;SDS011;41295;48.518;9.206;2022-09-12T10:44:52;5.78;;;4.82;;
32250;SDS011;41295;48.518;9.206;2022-09-12T10:46:56;7.47;;;5.20;;
32250;SDS011;41295;48.518;9.206;2022-09-12T10:49:13;5.32;;;4.50;;
32250;SDS011;41295;48.518;9.206;2022-09-12T10:51:25;10.48;;;4.68;;
32250;SDS011;41295;48.518;9.206;2022-09-12T10:53:30;6.03;;;4.68;;
32250;SDS011;41295;48.518;9.206;2022-09-12T10:55:41;7.38;;;4.60;;
32250;SDS011;41295;48.518;9.206;2022-09-12T10:58:01;7.88;;;4.43;;
32250;SDS011;41295;48.518;9.206;2022-09-12T11:00:16;5.13;;;4.40;;
32250;SDS011;41295;48.518;9.206;2022-09-12T11:04:34;7.85;;;4.70;;
32250;SDS011;41295;48.518;9.206;2022-09-12T11:06:51;6.00;;;3.92;;
32250;SDS011;41295;48.518;9.206;2022-09-12T11:09:05;5.80;;;4.00;;
32250;SDS011;41295;48.518;9.206;2022-09-12T11:11:19;5.35;;;4.60;;
32250;SDS011;41295;48.518;9.206;2022-09-12T11:13:42;5.10;;;4.10;;
32250;SDS011;41295;48.518;9.206;2022-09-12T11:15:58;5.85;;;3.90;;
32250;SDS011;41295;48.518;9.206;2022-09-12T11:18:18;6.47;;;3.72;;
32250;SDS011;41295;48.518;9.206;2022-09-12T11:20:50;4.85;;;3.72;;
32250;SDS011;41295;48.518;9.206;2022-09-12T11:23:19;5.18;;;4.10;;
32250;SDS011;41295;48.518;9.206;2022-09-12T11:25:33;5.87;;;4.00;;
32250;SDS011;41295;48.518;9.206;2022-09-12T11:27:49;5.05;;;4.05;;
32250;SDS011;41295;48.518;9.206;2022-09-12T11:30:04;5.75;;;3.60;;
32250;SDS011;41295;48.518;9.206;2022-09-12T11:32:25;5.60;;;3.70;;
32250;SDS011;41295;48.518;9.206;2022-09-12T11:34:41;5.60;;;3.30;;
32250;SDS011;41295;48.518;9.206;2022-09-12T11:36:56;4.07;;;3.40;;
32250;SDS011;41295;48.518;9.206;2022-09-12T11:39:13;4.00;;;3.60;;
32250;SDS011;41295;48.518;9.206;2022-09-12T11:41:18;4.78;;;3.47;;
32250;SDS011;41295;48.518;9.206;2022-09-12T11:43:28;4.68;;;3.10;;
32250;SDS011;41295;48.518;9.206;2022-09-12T11:45:36;4.80;;;3.33;;
32250;SDS011;41295;48.518;9.206;2022-09-12T11:47:43;4.85;;;2.60;;
32250;SDS011;41295;48.518;9.206;2022-09-12T11:49:51;3.22;;;2.70;;
32250;SDS011;41295;48.518;9.206;2022-09-12T11:51:57;5.82;;;2.75;;
32250;SDS011;41295;48.518;9.206;2022-09-12T11:54:08;3.85;;;2.58;;
32250;SDS011;41295;48.518;9.206;2022-09-12T11:56:16;3.55;;;2.55;;
32250;SDS011;41295;48.518;9.206;2022-09-12T11:58:20;4.75;;;2.90;;
32250;SDS011;41295;48.518;9.206;2022-09-12T12:00:27;4.57;;;2.88;;
32250;SDS011;41295;48.518;9.206;2022-09-12T12:02:38;4.75;;;2.88;;
32250;SDS011;41295;48.518;9.206;2022-09-12T12:04:49;4.55;;;2.92;;
32250;SDS011;41295;48.518;9.206;2022-09-12T12:07:03;3.85;;;3.03;;
32250;SDS011;41295;48.518;9.206;2022-09-12T12:09:09;3.88;;;2.47;;
32250;SDS011;41295;48.518;9.206;2022-09-12T12:11:14;2.95;;;2.55;;
32250;SDS011;41295;48.518;9.206;2022-09-12T12:15:31;2.83;;;2.33;;
32250;SDS011;41295;48.518;9.206;2022-09-12T12:17:40;2.72;;;2.10;;
32250;SDS011;41295;48.518;9.206;2022-09-12T12:19:43;3.80;;;2.25;;
32250;SDS011;41295;48.518;9.206;2022-09-12T12:21:47;3.22;;;1.88;;
32250;SDS011;41295;48.518;9.206;2022-09-12T12:24:00;3.53;;;2.50;;
32250;SDS011;41295;48.518;9.206;2022-09-12T12:26:09;4.80;;;2.60;;
32250;SDS011;41295;48.518;9.206;2022-09-12T12:28:59;4.97;;;2.30;;
32250;SDS011;41295;48.518;9.206;2022-09-12T12:31:02;5.30;;;2.25;;
32250;SDS011;41295;48.518;9.206;2022-09-12T12:33:50;4.85;;;2.03;;
32250;SDS011;41295;48.518;9.206;2022-09-12T12:36:00;2.55;;;1.58;;
32250;SDS011;41295;48.518;9.206;2022-09-12T12:38:24;1.67;;;1.33;;
32250;SDS011;41295;48.518;9.206;2022-09-12T12:40:29;5.32;;;1.92;;
32250;SDS011;41295;48.518;9.206;2022-09-12T12:47:45;1.55;;;1.20;;
32250;SDS011;41295;48.518;9.206;2022-09-12T12:49:53;1.83;;;1.33;;
32250;SDS011;41295;48.518;9.206;2022-09-12T12:52:00;4.38;;;1.70;;